Time;durP1;ratioP1;P1;durP2;ratioP2;P2;SDS_P1;SDS_P2;PMS_P1;PMS_P2;Temp;Humidity;BMP_temperature;BMP_pressure;BME280_temperature;BME280_humidity;BME280_pressure;Samples;Min_cycle;Max_cycle;Signal;HPM_P1;HPM_P2
2022/04/10 00:01:18;;;;;;;0.10;0.10;;;;;;;6.03;94.60;100398.56;4981321;28;20058;-66
2022/04/10 00:03:43;;;;;;;0.10;0.10;;;;;;;6.24;93.43;100407.28;4962431;28;20124;-66
2022/04/10 00:06:09;;;;;;;0.10;0.10;;;;;;;5.90;95.70;100397.75;4980948;28;20034;-66
2022/04/10 00:08:34;;;;;;;0.10;0.10;;;;;;;5.77;96.25;100401.44;4981684;28;20416;-66
2022/04/10 00:11:00;;;;;;;0.28;0.28;;;;;;;6.05;94.31;100399.00;4987575;28;20035;-65
2022/04/10 00:13:25;;;;;;;0.20;0.20;;;;;;;5.97;94.74;100386.50;4986121;28;20034;-66
2022/04/10 00:15:50;;;;;;;0.10;0.10;;;;;;;5.91;94.56;100390.50;4962290;28;20103;-66
2022/04/10 00:18:16;;;;;;;0.10;0.10;;;;;;;5.77;95.42;100406.03;4985962;28;20117;-66
2022/04/10 00:20:41;;;;;;;0.10;0.10;;;;;;;5.96;94.23;100398.31;4985492;28;20053;-65
2022/04/10 00:23:08;;;;;;;0.10;0.10;;;;;;;5.95;94.06;100402.88;4976483;28;20319;-64
2022/04/10 00:25:34;;;;;;;0.20;0.20;;;;;;;5.87;94.02;100405.63;4984924;28;20045;-65
2022/04/10 00:27:59;;;;;;;0.10;0.10;;;;;;;6.12;93.48;100399.22;4985896;28;20034;-65
2022/04/10 00:30:25;;;;;;;0.10;0.10;;;;;;;5.98;93.81;100401.44;4969823;28;20050;-65
2022/04/10 00:32:52;;;;;;;0.20;0.20;;;;;;;5.95;94.35;100408.22;4986925;28;20034;-65
2022/04/10 00:35:18;;;;;;;0.10;0.10;;;;;;;5.89;93.80;100400.72;4987406;28;20473;-65
2022/04/10 00:37:44;;;;;;;0.10;0.10;;;;;;;5.66;95.21;100399.50;4971378;28;20026;-65
2022/04/10 00:40:09;;;;;;;0.10;0.10;;;;;;;6.00;93.75;100391.22;4967109;28;20027;-65
2022/04/10 00:42:39;;;;;;;0.10;0.10;;;;;;;5.69;94.63;100391.63;4968051;28;20121;-65
2022/04/10 00:45:07;;;;;;;0.25;0.25;;;;;;;5.81;95.01;100399.69;4986371;28;20232;-65
2022/04/10 00:47:32;;;;;;;0.10;0.10;;;;;;;5.56;95.77;100390.00;4968377;28;20266;-64
2022/04/10 00:50:00;;;;;;;0.10;0.10;;;;;;;5.74;94.67;100399.44;4982746;28;20506;-66
2022/04/10 00:52:27;;;;;;;0.20;0.20;;;;;;;5.53;95.06;100403.25;4985613;28;20058;-65
2022/04/10 00:54:53;;;;;;;0.10;0.10;;;;;;;5.55;96.26;100399.16;4966683;28;20085;-65
2022/04/10 00:57:19;;;;;;;0.10;0.10;;;;;;;5.71;94.58;100404.66;4959666;28;20034;-65
2022/04/10 00:59:45;;;;;;;0.20;0.20;;;;;;;5.63;95.39;100408.97;4984809;28;20038;-65
2022/04/10 01:02:11;;;;;;;0.10;0.10;;;;;;;5.65;95.25;100406.75;4984921;28;20041;-65
2022/04/10 01:04:37;;;;;;;0.30;0.30;;;;;;;5.77;94.16;100398.00;4981203;28;20460;-66
2022/04/10 01:07:04;;;;;;;0.10;0.10;;;;;;;5.65;94.77;100411.31;4982436;28;20035;-65
2022/04/10 01:09:31;;;;;;;0.17;0.17;;;;;;;5.60;94.43;100416.84;4969428;28;20041;-65
2022/04/10 01:11:57;;;;;;;0.10;0.10;;;;;;;5.56;94.54;100410.59;4986042;28;20038;-65
2022/04/10 01:14:26;;;;;;;0.10;0.10;;;;;;;5.65;94.18;100411.31;4966828;28;20030;-65
2022/04/10 01:16:52;;;;;;;0.10;0.10;;;;;;;5.70;94.27;100413.78;4969773;28;20100;-65
2022/04/10 01:19:20;;;;;;;0.10;0.10;;;;;;;5.67;93.95;100420.53;4968116;28;20105;-65
2022/04/10 01:21:48;;;;;;;0.10;0.10;;;;;;;5.37;96.39;100419.84;4984531;28;20038;-66
2022/04/10 01:24:14;;;;;;;0.10;0.10;;;;;;;5.39;96.03;100424.88;4963048;28;20031;-65
2022/04/10 01:26:41;;;;;;;0.10;0.10;;;;;;;5.63;95.72;100417.00;4965974;28;20084;-65
2022/04/10 01:29:10;;;;;;;0.20;0.20;;;;;;;5.47;95.96;100413.34;4979243;28;20042;-65
2022/04/10 01:31:42;;;;;;;0.10;0.10;;;;;;;5.57;95.28;100420.16;4976226;28;20121;-66
2022/04/10 01:34:10;;;;;;;0.20;0.20;;;;;;;5.39;96.90;100425.66;4953696;28;20030;-66
2022/04/10 01:36:37;;;;;;;0.10;0.10;;;;;;;5.68;94.26;100421.31;4974926;28;20030;-66
2022/04/10 01:39:07;;;;;;;0.20;0.20;;;;;;;5.73;93.32;100424.56;4981263;28;20490;-66
2022/04/10 01:41:34;;;;;;;0.20;0.20;;;;;;;5.45;95.43;100424.34;4974413;28;20496;-64
2022/04/10 01:44:03;;;;;;;0.10;0.10;;;;;;;5.39;96.41;100424.88;4962047;28;21363;-64
2022/04/10 01:46:30;;;;;;;0.10;0.10;;;;;;;5.38;96.99;100429.41;4981238;28;20080;-63
2022/04/10 01:48:56;;;;;;;0.10;0.10;;;;;;;5.38;96.52;100428.66;4979973;28;20575;-64
2022/04/10 01:51:23;;;;;;;0.10;0.10;;;;;;;5.21;97.27;100434.88;4966544;28;20022;-67
2022/04/10 01:53:48;;;;;;;0.20;0.20;;;;;;;5.26;97.68;100434.69;4981902;28;20034;-66
2022/04/10 01:56:14;;;;;;;0.10;0.10;;;;;;;5.34;97.30;100441.84;4962494;28;20081;-66
2022/04/10 01:58:44;;;;;;;0.10;0.10;;;;;;;5.34;97.00;100443.75;4981433;28;20129;-65
2022/04/10 02:01:12;;;;;;;0.47;0.47;;;;;;;5.49;96.71;100457.31;4982558;28;20050;-66
2022/04/10 02:03:38;;;;;;;0.10;0.10;;;;;;;5.46;96.97;100457.94;4965832;28;20046;-66
2022/04/10 02:06:06;;;;;;;0.10;0.10;;;;;;;5.70;96.41;100456.50;4982521;28;20109;-66
2022/04/10 02:08:34;;;;;;;0.98;0.98;;;;;;;5.58;96.58;100456.44;4983425;28;20076;-66
2022/04/10 02:10:59;;;;;;;0.10;0.10;;;;;;;5.53;97.28;100456.66;4985484;28;20018;-66
2022/04/10 02:13:25;;;;;;;0.10;0.10;;;;;;;5.69;95.97;100465.66;4983019;28;20367;-65
2022/04/10 02:15:51;;;;;;;0.10;0.10;;;;;;;5.63;96.84;100461.59;4968810;28;20366;-66
2022/04/10 02:18:16;;;;;;;0.20;0.20;;;;;;;5.78;96.87;100472.47;4986321;28;20041;-66
2022/04/10 02:20:42;;;;;;;0.10;0.10;;;;;;;5.73;97.68;100477.25;4985218;28;20541;-65
2022/04/10 02:23:08;;;;;;;0.20;0.20;;;;;;;5.53;99.19;100478.00;4959013;28;20129;-64
2022/04/10 02:25:34;;;;;;;0.10;0.10;;;;;;;5.48;98.59;100465.63;4959597;28;20121;-64
2022/04/10 02:28:01;;;;;;;0.10;0.10;;;;;;;5.39;99.53;100471.03;4959347;28;20039;-65
2022/04/10 02:30:26;;;;;;;0.10;0.10;;;;;;;5.52;99.80;100468.44;4955501;28;21168;-65
2022/04/10 02:32:52;;;;;;;0.10;0.10;;;;;;;5.71;97.92;100466.84;4978667;28;20568;-66
2022/04/10 02:35:18;;;;;;;0.10;0.10;;;;;;;5.58;98.87;100467.13;4981766;28;20039;-66
2022/04/10 02:37:47;;;;;;;0.10;0.10;;;;;;;5.45;98.95;100466.28;4967960;28;20087;-66
2022/04/10 02:40:14;;;;;;;0.10;0.10;;;;;;;5.61;97.33;100477.16;4969078;28;20026;-64
2022/04/10 02:42:41;;;;;;;0.20;0.20;;;;;;;5.38;99.14;100476.72;4968292;28;20037;-65
2022/04/10 02:45:07;;;;;;;0.08;0.08;;;;;;;5.53;99.05;100482.22;4964016;28;20144;-65
2022/04/10 02:47:33;;;;;;;0.10;0.10;;;;;;;5.43;100.00;100473.84;4979391;28;20468;-65
2022/04/10 02:49:59;;;;;;;0.10;0.10;;;;;;;5.65;99.23;100470.06;4967212;28;20030;-65
2022/04/10 02:52:25;;;;;;;0.10;0.10;;;;;;;5.56;99.31;100483.47;4984210;28;20165;-64
2022/04/10 02:54:51;;;;;;;0.10;0.10;;;;;;;5.48;99.39;100482.44;4966883;28;20030;-64
2022/04/10 02:57:17;;;;;;;0.10;0.10;;;;;;;5.36;100.00;100477.00;4968712;28;20488;-65
2022/04/10 02:59:43;;;;;;;0.10;0.10;;;;;;;5.39;100.00;100480.94;4969654;28;20034;-64
2022/04/10 03:02:09;;;;;;;0.32;0.32;;;;;;;5.44;98.61;100491.41;4966943;28;20108;-66
2022/04/10 03:04:34;;;;;;;0.10;0.10;;;;;;;5.22;100.00;100499.72;4989918;28;20041;-66
2022/04/10 03:07:00;;;;;;;0.10;0.10;;;;;;;5.20;100.00;100499.25;4989290;28;20049;-66
2022/04/10 03:09:27;;;;;;;0.10;0.10;;;;;;;5.24;100.00;100505.53;4989135;28;20514;-65
2022/04/10 03:11:53;;;;;;;0.10;0.10;;;;;;;5.24;100.00;100510.84;4972228;28;20034;-66
2022/04/10 03:14:19;;;;;;;0.10;0.10;;;;;;;5.14;100.00;100516.56;4972727;28;20027;-65
2022/04/10 03:16:44;;;;;;;0.10;0.10;;;;;;;5.03;99.36;100504.69;4972746;28;20507;-65
2022/04/10 03:19:10;;;;;;;0.10;0.10;;;;;;;4.82;100.00;100501.94;4986449;28;20038;-65
2022/04/10 03:21:36;;;;;;;0.10;0.10;;;;;;;5.13;99.61;100504.31;4983974;28;20477;-65
2022/04/10 03:24:02;;;;;;;0.10;0.10;;;;;;;4.87;100.00;100496.44;4988920;28;20112;-65
2022/04/10 03:26:29;;;;;;;0.10;0.10;;;;;;;4.75;100.00;100493.66;4972137;28;20093;-64
2022/04/10 03:28:55;;;;;;;0.10;0.10;;;;;;;4.59;100.00;100504.06;4970822;28;20478;-66
2022/04/10 03:31:23;;;;;;;0.20;0.20;;;;;;;4.67;100.00;100497.13;4972763;28;20022;-66
2022/04/10 03:33:50;;;;;;;0.20;0.20;;;;;;;4.74;100.00;100500.09;4972867;28;20548;-65
2022/04/10 03:36:16;;;;;;;0.35;0.35;;;;;;;4.74;100.00;100501.97;4989951;28;20026;-65
2022/04/10 03:38:42;;;;;;;0.10;0.10;;;;;;;4.77;100.00;100499.44;4971164;28;20066;-65
2022/04/10 03:41:08;;;;;;;0.10;0.10;;;;;;;4.64;100.00;100508.44;4972851;28;20462;-65
2022/04/10 03:43:33;;;;;;;0.10;0.10;;;;;;;4.64;100.00;100503.09;4972347;28;20041;-65
2022/04/10 03:45:59;;;;;;;0.10;0.10;;;;;;;4.61;100.00;100500.31;4970073;28;20057;-65
2022/04/10 03:48:25;;;;;;;0.20;0.20;;;;;;;4.55;100.00;100505.78;4971985;28;20114;-65
2022/04/10 03:50:51;;;;;;;0.20;0.20;;;;;;;4.48;100.00;100504.72;4971880;28;20467;-65
2022/04/10 03:53:17;;;;;;;0.15;0.15;;;;;;;4.82;100.00;100499.25;4985707;28;20087;-65
2022/04/10 03:55:43;;;;;;;0.20;0.20;;;;;;;4.72;100.00;100499.63;4972811;28;20029;-65
2022/04/10 03:58:09;;;;;;;0.10;0.10;;;;;;;4.67;100.00;100507.00;4971782;28;20084;-65
2022/04/10 04:00:35;;;;;;;0.28;0.28;;;;;;;4.69;100.00;100504.78;4971970;28;20026;-64
2022/04/10 04:03:06;;;;;;;0.20;0.20;;;;;;;4.68;100.00;100512.03;4970193;28;20030;-65
2022/04/10 04:05:34;;;;;;;0.10;0.10;;;;;;;4.67;100.00;100507.78;4987733;28;20072;-65
2022/04/10 04:08:01;;;;;;;0.10;0.10;;;;;;;4.57;100.00;100518.78;4971604;28;20038;-65
2022/04/10 04:10:30;;;;;;;0.20;0.20;;;;;;;4.73;100.00;100519.06;4971354;28;20121;-66
2022/04/10 04:12:56;;;;;;;0.10;0.10;;;;;;;4.74;100.00;100520.66;4970768;28;20037;-65
2022/04/10 04:15:21;;;;;;;0.30;0.30;;;;;;;4.80;100.00;100522.81;4988921;28;20034;-65
2022/04/10 04:17:47;;;;;;;0.10;0.10;;;;;;;5.01;99.99;100523.69;4970585;28;20030;-65
2022/04/10 04:20:13;;;;;;;0.10;0.10;;;;;;;4.59;100.00;100527.25;4972304;28;20122;-64
2022/04/10 04:22:41;;;;;;;0.13;0.13;;;;;;;4.45;100.00;100521.34;4954170;28;20030;-65
2022/04/10 04:25:06;;;;;;;0.10;0.10;;;;;;;4.42;100.00;100536.09;4986066;28;20519;-64
2022/04/10 04:27:33;;;;;;;0.10;0.10;;;;;;;4.42;100.00;100529.97;4970924;28;20034;-66
2022/04/10 04:30:00;;;;;;;0.45;0.30;;;;;;;4.44;100.00;100533.88;4988683;28;20105;-65
2022/04/10 04:32:26;;;;;;;0.10;0.10;;;;;;;4.39;100.00;100531.38;4971760;28;20027;-66
2022/04/10 04:34:51;;;;;;;0.10;0.10;;;;;;;4.49;100.00;100541.72;4969836;28;20092;-66
2022/04/10 04:37:17;;;;;;;0.10;0.10;;;;;;;4.51;100.00;100563.50;4971028;28;20042;-64
2022/04/10 04:39:42;;;;;;;0.10;0.10;;;;;;;4.62;100.00;100571.97;4967010;28;20492;-64
2022/04/10 04:42:08;;;;;;;0.15;0.15;;;;;;;4.79;100.00;100574.59;4986148;28;20037;-64
2022/04/10 04:44:34;;;;;;;0.70;0.55;;;;;;;4.49;100.00;100570.28;4971183;28;20034;-65
2022/04/10 04:47:00;;;;;;;0.10;0.10;;;;;;;4.49;100.00;100559.59;4968287;28;20070;-65
2022/04/10 04:49:26;;;;;;;0.10;0.10;;;;;;;4.65;100.00;100576.66;4970481;28;20041;-65
2022/04/10 04:51:52;;;;;;;0.10;0.10;;;;;;;4.56;100.00;100576.69;4971093;28;20029;-65
2022/04/10 04:54:18;;;;;;;0.10;0.10;;;;;;;4.54;100.00;100581.56;4971218;28;20031;-66
2022/04/10 04:56:45;;;;;;;0.10;0.10;;;;;;;4.60;100.00;100582.16;4968833;28;20037;-66
2022/04/10 04:59:14;;;;;;;0.10;0.10;;;;;;;4.51;100.00;100584.03;4971511;28;20030;-65
2022/04/10 05:01:43;;;;;;;0.10;0.10;;;;;;;4.77;100.00;100592.78;4967360;28;20037;-65
2022/04/10 05:04:11;;;;;;;0.20;0.20;;;;;;;4.61;100.00;100588.28;4984268;28;20038;-65
2022/04/10 05:06:37;;;;;;;0.10;0.10;;;;;;;4.84;100.00;100600.31;4969082;28;20489;-64
2022/04/10 05:09:05;;;;;;;0.10;0.10;;;;;;;4.72;100.00;100590.31;4971053;28;20049;-64
2022/04/10 05:11:33;;;;;;;0.10;0.10;;;;;;;4.65;100.00;100592.66;4968233;28;20129;-66
2022/04/10 05:13:58;;;;;;;0.10;0.10;;;;;;;4.81;100.00;100595.59;4970933;28;20039;-65
2022/04/10 05:16:25;;;;;;;0.10;0.10;;;;;;;4.79;100.00;100603.13;4970900;28;20034;-65
2022/04/10 05:18:52;;;;;;;0.10;0.10;;;;;;;5.21;100.00;100589.66;4967789;28;20461;-65
2022/04/10 05:21:21;;;;;;;0.10;0.10;;;;;;;4.96;100.00;100601.22;4970696;28;20121;-65
2022/04/10 05:23:48;;;;;;;0.10;0.10;;;;;;;5.16;100.00;100610.41;4970227;28;20041;-65
2022/04/10 05:26:17;;;;;;;0.10;0.10;;;;;;;4.79;100.00;100605.81;4967959;28;20044;-65
2022/04/10 05:28:48;;;;;;;0.57;0.57;;;;;;;4.85;100.00;100616.00;4979789;28;20030;-65
2022/04/10 05:31:14;;;;;;;0.10;0.10;;;;;;;5.09;100.00;100623.47;4963112;28;20033;-65
2022/04/10 05:33:43;;;;;;;0.10;0.10;;;;;;;5.11;100.00;100622.03;4965398;28;20497;-66
2022/04/10 05:36:10;;;;;;;0.20;0.20;;;;;;;5.04;100.00;100620.97;4960235;28;20045;-65
2022/04/10 05:38:39;;;;;;;0.10;0.10;;;;;;;5.27;100.00;100627.63;4988245;23;20240;-58
2022/04/10 05:41:04;;;;;;;0.10;0.10;;;;;;;5.22;100.00;100633.97;5023315;28;20032;-58
2022/04/10 05:43:34;;;;;;;0.20;0.20;;;;;;;5.04;100.00;100636.97;5038313;28;20515;-57
2022/04/10 05:46:01;;;;;;;0.10;0.10;;;;;;;4.92;100.00;100632.28;5007638;28;20532;-57
2022/04/10 05:48:27;;;;;;;0.10;0.10;;;;;;;5.15;100.00;100630.22;5000529;28;20110;-58
2022/04/10 05:50:52;;;;;;;0.10;0.10;;;;;;;5.11;100.00;100638.06;5011929;28;20569;-58
2022/04/10 05:53:18;;;;;;;0.10;0.10;;;;;;;5.22;100.00;100643.84;5000195;28;20458;-58
2022/04/10 05:55:45;;;;;;;0.10;0.10;;;;;;;5.20;100.00;100638.03;4995017;28;20030;-58
2022/04/10 05:58:16;;;;;;;0.10;0.10;;;;;;;5.28;100.00;100646.00;5001266;28;20100;-59
2022/04/10 06:00:42;;;;;;;0.10;0.10;;;;;;;5.46;100.00;100639.50;5003478;28;20544;-58
2022/04/10 06:03:15;;;;;;;0.20;0.20;;;;;;;5.74;100.00;100652.41;5009728;28;20034;-57
2022/04/10 06:05:44;;;;;;;0.30;0.30;;;;;;;5.67;100.00;100649.47;5001985;28;20069;-59
2022/04/10 06:08:30;;;;;;;0.10;0.10;;;;;;;5.74;100.00;100665.78;4990789;28;20050;-58
2022/04/10 06:10:55;;;;;;;0.10;0.10;;;;;;;5.54;100.00;100675.28;5001841;28;20030;-57
2022/04/10 06:13:22;;;;;;;0.10;0.10;;;;;;;5.50;100.00;100669.03;5017163;28;20765;-60
2022/04/10 06:15:53;;;;;;;0.10;0.10;;;;;;;5.47;100.00;100680.34;4999314;28;20073;-58
2022/04/10 06:18:20;;;;;;;0.20;0.20;;;;;;;5.43;100.00;100672.19;5004093;28;20033;-61
2022/04/10 06:20:46;;;;;;;0.10;0.10;;;;;;;5.62;100.00;100671.81;5004368;28;20041;-59
2022/04/10 06:23:12;;;;;;;0.10;0.10;;;;;;;5.84;100.00;100679.59;5024096;28;20034;-57
2022/04/10 06:25:40;;;;;;;0.10;0.10;;;;;;;5.62;100.00;100669.13;4988930;28;20034;-60
2022/04/10 06:28:06;;;;;;;0.20;0.20;;;;;;;5.69;100.00;100673.97;4997561;28;20030;-59
2022/04/10 06:30:38;;;;;;;0.40;0.22;;;;;;;5.78;100.00;100688.88;4988926;28;20189;-56
2022/04/10 06:33:04;;;;;;;0.10;0.10;;;;;;;5.75;100.00;100689.50;5008711;28;20054;-57
2022/04/10 06:35:30;;;;;;;0.10;0.10;;;;;;;5.67;100.00;100692.22;5010458;28;20033;-58
2022/04/10 06:37:58;;;;;;;0.10;0.10;;;;;;;5.78;100.00;100696.09;5006639;28;20070;-59
2022/04/10 06:40:24;;;;;;;0.10;0.10;;;;;;;6.02;100.00;100704.34;4993385;28;20121;-58
2022/04/10 06:42:50;;;;;;;0.10;0.10;;;;;;;6.50;100.00;100698.53;5017103;28;20125;-58
2022/04/10 06:45:24;;;;;;;0.10;0.10;;;;;;;6.83;100.00;100707.41;5013614;28;20101;-58
2022/04/10 06:47:52;;;;;;;0.13;0.13;;;;;;;6.92;100.00;100714.25;5011827;28;20045;-58
2022/04/10 06:50:39;;;;;;;0.10;0.10;;;;;;;7.11;98.48;100719.88;5013189;28;20034;-57
2022/04/10 06:53:12;;;;;;;0.10;0.10;;;;;;;7.27;95.90;100710.13;4929538;29;20061;-58
2022/04/10 06:55:37;;;;;;;0.85;0.55;;;;;;;7.05;96.58;100710.50;4935856;29;20043;-59
2022/04/10 06:58:03;;;;;;;0.10;0.10;;;;;;;7.04;95.51;100703.59;4933947;29;20047;-59
2022/04/10 07:00:29;;;;;;;0.17;0.17;;;;;;;6.95;95.21;100702.88;4934022;29;20064;-59
2022/04/10 07:02:55;;;;;;;0.10;0.10;;;;;;;6.83;96.35;100712.75;4932151;29;20035;-58
2022/04/10 07:05:20;;;;;;;0.40;0.40;;;;;;;7.03;96.62;100710.03;4936071;29;20047;-59
2022/04/10 07:07:52;;;;;;;0.10;0.10;;;;;;;7.22;94.75;100710.31;4935919;29;20039;-59
2022/04/10 07:10:18;;;;;;;0.30;0.30;;;;;;;7.25;93.73;100717.72;4949326;29;20035;-58
2022/04/10 07:12:45;;;;;;;0.10;0.10;;;;;;;7.17;95.00;100720.47;4934354;29;20122;-55
2022/04/10 07:15:10;;;;;;;0.10;0.10;;;;;;;7.14;94.93;100719.22;4933427;29;20577;-58
2022/04/10 07:17:37;;;;;;;0.13;0.13;;;;;;;7.13;95.05;100723.03;4934847;29;20410;-59
2022/04/10 07:20:06;;;;;;;0.10;0.10;;;;;;;7.25;94.87;100715.03;4930987;29;20086;-59
2022/04/10 07:25:17;;;;;;;0.10;0.10;;;;;;;7.34;94.93;100731.00;4949129;29;20031;-59
2022/04/10 07:27:45;;;;;;;0.10;0.10;;;;;;;7.46;96.03;100735.59;4933602;29;20035;-60
2022/04/10 07:30:22;;;;;;;0.10;0.10;;;;;;;7.90;93.41;100732.88;4969280;28;20126;-59
2022/04/10 07:32:56;;;;;;;0.10;0.10;;;;;;;7.78;93.08;100742.81;5024823;28;20583;-59
2022/04/10 07:35:25;;;;;;;0.63;0.20;;;;;;;7.86;93.09;100744.59;4993565;28;20113;-59
2022/04/10 07:37:57;;;;;;;0.10;0.10;;;;;;;8.12;91.60;100740.50;4993052;28;20040;-59
2022/04/10 07:40:25;;;;;;;0.10;0.10;;;;;;;8.04;90.49;100738.69;4994756;28;20383;-59
2022/04/10 07:42:53;;;;;;;0.40;0.40;;;;;;;8.31;90.64;100734.56;4999852;28;20141;-59
2022/04/10 07:48:18;;;;;;;0.10;0.10;;;;;;;8.77;89.99;100739.41;4990600;28;20036;-60
2022/04/10 07:50:44;;;;;;;0.10;0.10;;;;;;;9.03;88.68;100734.41;4991819;28;20120;-60
2022/04/10 07:53:11;;;;;;;0.10;0.10;;;;;;;9.03;87.67;100728.25;4975604;28;20490;-58
2022/04/10 07:55:43;;;;;;;0.10;0.10;;;;;;;9.45;86.33;100742.81;5002826;28;20040;-60
2022/04/10 07:58:09;;;;;;;0.10;0.10;;;;;;;9.64;85.41;100742.16;4982798;28;20336;-60
2022/04/10 08:00:35;;;;;;;0.10;0.10;;;;;;;9.47;86.58;100743.25;4998895;28;20033;-60
2022/04/10 08:03:05;;;;;;;0.80;0.80;;;;;;;9.77;83.95;100744.41;5003072;28;20038;-59
2022/04/10 08:05:56;;;;;;;0.10;0.10;;;;;;;9.62;83.12;100739.03;5005345;28;20038;-59
2022/04/10 08:08:30;;;;;;;0.10;0.10;;;;;;;9.76;83.74;100744.75;4998954;28;20124;-59
2022/04/10 08:10:56;;;;;;;3.00;0.35;;;;;;;9.83;83.00;100753.00;4987986;28;20112;-58
2022/04/10 08:13:21;;;;;;;0.52;0.52;;;;;;;9.86;82.20;100738.84;5004923;28;20495;-60
2022/04/10 08:15:48;;;;;;;0.10;0.10;;;;;;;10.04;80.37;100753.53;5007983;28;20060;-58
2022/04/10 08:18:14;;;;;;;0.10;0.10;;;;;;;10.10;78.75;100759.44;5009492;28;20043;-60
2022/04/10 08:20:39;;;;;;;0.10;0.10;;;;;;;10.17;79.31;100765.00;5009610;28;20389;-55
2022/04/10 08:23:05;;;;;;;0.10;0.10;;;;;;;9.95;79.61;100758.28;5008983;28;20038;-60
2022/04/10 08:25:30;;;;;;;0.20;0.20;;;;;;;10.03;80.38;100757.31;5010046;28;20044;-57
2022/04/10 08:27:56;;;;;;;0.03;0.03;;;;;;;10.28;79.60;100771.41;5004186;28;20480;-58
2022/04/10 08:30:21;;;;;;;0.50;0.50;;;;;;;9.87;79.84;100761.94;5001735;28;20113;-58
2022/04/10 08:32:47;;;;;;;0.10;0.10;;;;;;;9.26;81.60;100774.94;5014357;28;20030;-59
2022/04/10 08:35:13;;;;;;;0.17;0.17;;;;;;;9.33;83.64;100777.03;4999445;28;20085;-59
2022/04/10 08:37:39;;;;;;;0.80;0.77;;;;;;;9.15;86.83;100799.94;5005016;28;20304;-58
2022/04/10 08:40:06;;;;;;;0.08;0.08;;;;;;;8.75;88.58;100797.25;5022659;28;20037;-59
2022/04/10 08:42:31;;;;;;;0.10;0.10;;;;;;;8.17;88.90;100803.84;4994229;28;20033;-59
2022/04/10 08:44:58;;;;;;;0.10;0.10;;;;;;;8.02;91.44;100797.25;5029354;28;20041;-57
2022/04/10 08:47:25;;;;;;;0.10;0.10;;;;;;;7.62;94.36;100800.84;5027361;28;20025;-60
2022/04/10 08:49:52;;;;;;;0.20;0.20;;;;;;;7.43;95.63;100808.59;5009348;28;20039;-59
2022/04/10 08:52:20;;;;;;;0.13;0.13;;;;;;;7.64;97.92;100801.31;5030096;28;20055;-60
2022/04/10 08:54:47;;;;;;;0.10;0.10;;;;;;;8.23;99.20;100797.13;5026483;28;20039;-59
2022/04/10 08:57:13;;;;;;;0.10;0.10;;;;;;;8.71;99.34;100807.88;5022793;28;20033;-58
2022/04/10 08:59:39;;;;;;;0.10;0.10;;;;;;;9.07;98.78;100799.75;5026656;28;20039;-58
2022/04/10 09:02:05;;;;;;;0.35;0.35;;;;;;;9.31;95.78;100806.94;5028474;28;20065;-58
2022/04/10 09:04:31;;;;;;;0.20;0.20;;;;;;;9.57;92.94;100801.91;5030646;28;20061;-59
2022/04/10 09:07:05;;;;;;;0.10;0.10;;;;;;;9.69;90.35;100798.34;5022837;28;21389;-59
2022/04/10 09:09:31;;;;;;;0.10;0.10;;;;;;;9.96;89.16;100794.81;5027233;28;20038;-59
2022/04/10 09:11:58;;;;;;;0.10;0.10;;;;;;;10.21;90.47;100801.63;5012556;28;20064;-59
2022/04/10 09:14:42;;;;;;;0.85;0.85;;;;;;;10.42;88.31;100804.81;5029280;28;20203;-60
2022/04/10 09:17:11;;;;;;;0.10;0.10;;;;;;;10.79;85.70;100803.34;5021323;28;20087;-60
2022/04/10 09:19:40;;;;;;;0.10;0.10;;;;;;;10.88;82.55;100801.22;5028251;28;20037;-58
2022/04/10 09:22:21;;;;;;;0.32;0.32;;;;;;;10.88;82.13;100800.44;4991817;28;20496;-57
2022/04/10 09:25:11;;;;;;;0.10;0.10;;;;;;;10.79;81.76;100806.06;5009523;28;20193;-59
2022/04/10 09:27:39;;;;;;;0.10;0.10;;;;;;;10.89;80.98;100800.13;5019877;28;20237;-59
2022/04/10 09:30:07;;;;;;;2.45;0.75;;;;;;;11.12;78.65;100804.81;5026352;28;20039;-59
2022/04/10 09:32:43;;;;;;;0.10;0.10;;;;;;;11.18;77.49;100798.78;5027585;28;20053;-60
2022/04/10 09:35:11;;;;;;;0.10;0.10;;;;;;;11.36;75.99;100802.59;5005025;28;20042;-58
2022/04/10 09:37:43;;;;;;;0.20;0.20;;;;;;;11.65;74.28;100812.81;5002250;28;20488;-58
2022/04/10 09:40:28;;;;;;;0.10;0.10;;;;;;;11.86;70.68;100801.63;5008534;28;20052;-58
2022/04/10 09:43:01;;;;;;;0.10;0.10;;;;;;;11.72;67.40;100812.97;5023792;28;20037;-58
2022/04/10 09:45:34;;;;;;;0.10;0.10;;;;;;;11.79;68.54;100815.78;5022481;28;20193;-58
2022/04/10 09:48:27;;;;;;;0.10;0.10;;;;;;;11.89;67.10;100817.09;5023761;28;20049;-58
2022/04/10 09:50:57;;;;;;;0.10;0.10;;;;;;;11.87;66.34;100813.97;5002391;28;20029;-60
2022/04/10 09:53:23;;;;;;;0.00;0.00;;;;;;;11.92;69.09;100816.41;5022982;28;20028;-60
2022/04/10 09:55:54;;;;;;;0.00;0.00;;;;;;;11.86;68.12;100806.25;5020961;28;20041;-59
2022/04/10 09:58:20;;;;;;;0.10;0.10;;;;;;;12.21;65.91;100813.03;5018991;28;20041;-60
2022/04/10 10:00:47;;;;;;;0.20;0.20;;;;;;;12.37;65.20;100807.47;5004909;28;20079;-59
2022/04/10 10:03:14;;;;;;;0.10;0.10;;;;;;;12.23;65.44;100810.72;5023829;28;20075;-59
2022/04/10 10:05:39;;;;;;;0.10;0.10;;;;;;;12.10;63.17;100812.06;5010319;28;20042;-59
2022/04/10 10:08:06;;;;;;;0.10;0.10;;;;;;;11.93;65.45;100807.13;5013842;28;20044;-59
2022/04/10 10:10:37;;;;;;;0.00;0.00;;;;;;;12.32;64.50;100805.09;5001587;28;20108;-59
2022/04/10 10:13:07;;;;;;;0.10;0.10;;;;;;;12.67;64.96;100814.50;4997596;28;20037;-60
2022/04/10 10:15:36;;;;;;;0.10;0.10;;;;;;;12.90;61.21;100822.53;5016902;28;20779;-59
2022/04/10 10:18:04;;;;;;;0.00;0.00;;;;;;;12.96;59.50;100815.66;5026156;28;20095;-59
2022/04/10 10:20:30;;;;;;;0.00;0.00;;;;;;;12.87;58.31;100825.19;5019225;28;20396;-58
2022/04/10 10:23:28;;;;;;;0.00;0.00;;;;;;;12.96;57.53;100826.47;5019834;28;20037;-59
2022/04/10 10:26:18;;;;;;;0.10;0.10;;;;;;;13.04;58.06;100827.38;4953435;28;20397;-56
2022/04/10 10:29:09;;;;;;;0.00;0.00;;;;;;;12.72;59.39;100818.81;5022546;28;20060;-59
2022/04/10 10:31:54;;;;;;;0.00;0.00;;;;;;;12.38;59.05;100826.03;5022655;28;20029;-59
2022/04/10 10:34:23;;;;;;;0.10;0.10;;;;;;;11.72;59.44;100822.97;5008150;28;20669;-58
2022/04/10 10:36:49;;;;;;;0.10;0.10;;;;;;;11.38;59.82;100831.91;5012094;28;20045;-59
2022/04/10 10:39:14;;;;;;;0.03;0.03;;;;;;;11.94;60.17;100834.91;5024839;28;20040;-60
2022/04/10 10:41:40;;;;;;;0.20;0.20;;;;;;;12.01;60.00;100827.72;5007066;28;20048;-58
2022/04/10 10:44:35;;;;;;;0.22;0.22;;;;;;;12.32;58.18;100830.19;5021165;28;20034;-59
2022/04/10 10:47:02;;;;;;;0.00;0.00;;;;;;;12.61;57.84;100832.16;5003837;28;20103;-60
2022/04/10 10:49:43;;;;;;;0.73;0.73;;;;;;;12.47;57.39;100841.97;5005069;28;20072;-59
2022/04/10 10:52:09;;;;;;;0.03;0.03;;;;;;;12.59;57.00;100839.84;5022080;28;20236;-60
2022/04/10 10:54:35;;;;;;;0.20;0.20;;;;;;;12.55;57.59;100835.53;5008666;28;20112;-59
2022/04/10 10:57:39;;;;;;;0.10;0.10;;;;;;;12.20;59.58;100846.56;5013226;28;20032;-59
2022/04/10 11:00:09;;;;;;;0.10;0.10;;;;;;;12.23;59.40;100848.53;5020511;28;20518;-60
2022/04/10 11:02:36;;;;;;;0.00;0.00;;;;;;;12.40;57.22;100837.25;5004640;28;20116;-61
2022/04/10 11:05:24;;;;;;;0.00;0.00;;;;;;;12.43;56.37;100862.75;5011698;28;20124;-58
2022/04/10 11:08:03;;;;;;;0.40;0.40;;;;;;;12.66;53.54;100849.97;5024400;28;20099;-58
2022/04/10 11:10:30;;;;;;;0.38;0.25;;;;;;;12.82;53.42;100852.53;4999931;28;20029;-57
2022/04/10 11:13:08;;;;;;;0.10;0.10;;;;;;;13.09;52.54;100851.38;5022052;28;20025;-58
2022/04/10 11:15:44;;;;;;;0.10;0.10;;;;;;;13.23;51.41;100846.16;5010525;28;20377;-58
2022/04/10 11:18:36;;;;;;;0.10;0.10;;;;;;;13.07;51.32;100853.69;5024303;28;20103;-57
2022/04/10 11:21:11;;;;;;;0.10;0.10;;;;;;;12.67;51.89;100863.16;4999573;28;20061;-59
2022/04/10 11:23:41;;;;;;;0.10;0.10;;;;;;;12.31;51.89;100861.00;5023699;28;20037;-60
2022/04/10 11:26:15;;;;;;;0.10;0.10;;;;;;;11.90;52.23;100856.44;5025734;28;20029;-60
2022/04/10 11:29:02;;;;;;;0.10;0.10;;;;;;;12.11;53.58;100846.03;5024307;28;20538;-59
2022/04/10 11:31:27;;;;;;;0.00;0.00;;;;;;;12.36;52.20;100868.03;5016248;28;20029;-59
2022/04/10 11:33:55;;;;;;;0.10;0.10;;;;;;;12.74;51.72;100859.00;5005257;28;20134;-59
2022/04/10 11:36:20;;;;;;;0.10;0.10;;;;;;;13.02;49.60;100859.38;4993255;28;20037;-57
2022/04/10 11:39:10;;;;;;;0.00;0.00;;;;;;;13.11;49.57;100870.72;5032980;22;20407;-52
2022/04/10 11:41:38;;;;;;;0.03;0.03;;;;;;;12.93;50.38;100892.06;5019390;28;20103;-60